sensor_id;sensor_type;location;lat;lon;timestamp;P1;durP1;ratioP1;P2;durP2;ratioP2
68256;SDS011;55069;51.568;4.656;2023-11-19T00:01:26;21.00;;;5.38;;
68256;SDS011;55069;51.568;4.656;2023-11-19T00:03:52;16.17;;;4.70;;
68256;SDS011;55069;51.568;4.656;2023-11-19T00:06:18;21.42;;;5.53;;
68256;SDS011;55069;51.568;4.656;2023-11-19T00:08:44;20.97;;;5.10;;
68256;SDS011;55069;51.568;4.656;2023-11-19T00:11:09;20.80;;;5.00;;
68256;SDS011;55069;51.568;4.656;2023-11-19T00:13:36;27.25;;;5.38;;
68256;SDS011;55069;51.568;4.656;2023-11-19T00:16:01;19.50;;;4.93;;
68256;SDS011;55069;51.568;4.656;2023-11-19T00:18:29;15.65;;;4.82;;
68256;SDS011;55069;51.568;4.656;2023-11-19T00:20:55;20.57;;;4.63;;
68256;SDS011;55069;51.568;4.656;2023-11-19T00:23:20;27.13;;;4.05;;
68256;SDS011;55069;51.568;4.656;2023-11-19T00:25:45;19.10;;;4.60;;
68256;SDS011;55069;51.568;4.656;2023-11-19T00:28:13;22.67;;;4.13;;
68256;SDS011;55069;51.568;4.656;2023-11-19T00:30:38;19.10;;;4.17;;
68256;SDS011;55069;51.568;4.656;2023-11-19T00:33:05;23.45;;;4.32;;
68256;SDS011;55069;51.568;4.656;2023-11-19T00:35:31;22.67;;;4.17;;
68256;SDS011;55069;51.568;4.656;2023-11-19T00:37:57;20.87;;;4.40;;
68256;SDS011;55069;51.568;4.656;2023-11-19T00:40:23;16.38;;;3.53;;
68256;SDS011;55069;51.568;4.656;2023-11-19T00:42:49;26.50;;;5.22;;
68256;SDS011;55069;51.568;4.656;2023-11-19T00:45:15;25.63;;;4.32;;
68256;SDS011;55069;51.568;4.656;2023-11-19T00:47:40;18.75;;;3.88;;
68256;SDS011;55069;51.568;4.656;2023-11-19T00:50:06;25.10;;;4.17;;
68256;SDS011;55069;51.568;4.656;2023-11-19T00:52:34;25.58;;;4.10;;
68256;SDS011;55069;51.568;4.656;2023-11-19T00:55:02;31.30;;;4.07;;
68256;SDS011;55069;51.568;4.656;2023-11-19T00:57:28;33.57;;;4.67;;
68256;SDS011;55069;51.568;4.656;2023-11-19T00:59:53;28.73;;;3.83;;
68256;SDS011;55069;51.568;4.656;2023-11-19T01:02:18;26.98;;;3.65;;
68256;SDS011;55069;51.568;4.656;2023-11-19T01:04:44;28.70;;;4.30;;
68256;SDS011;55069;51.568;4.656;2023-11-19T01:07:10;31.25;;;4.10;;
68256;SDS011;55069;51.568;4.656;2023-11-19T01:09:37;31.43;;;3.40;;
68256;SDS011;55069;51.568;4.656;2023-11-19T01:12:03;25.40;;;3.50;;
68256;SDS011;55069;51.568;4.656;2023-11-19T01:14:29;30.47;;;4.47;;
68256;SDS011;55069;51.568;4.656;2023-11-19T01:16:56;30.42;;;4.35;;
68256;SDS011;55069;51.568;4.656;2023-11-19T01:19:22;25.95;;;3.70;;
68256;SDS011;55069;51.568;4.656;2023-11-19T01:21:48;23.02;;;3.45;;
68256;SDS011;55069;51.568;4.656;2023-11-19T01:24:14;32.77;;;4.23;;
68256;SDS011;55069;51.568;4.656;2023-11-19T01:26:41;32.70;;;4.45;;
68256;SDS011;55069;51.568;4.656;2023-11-19T01:29:12;26.45;;;3.60;;
68256;SDS011;55069;51.568;4.656;2023-11-19T01:31:40;27.98;;;4.03;;
68256;SDS011;55069;51.568;4.656;2023-11-19T01:34:06;28.30;;;4.05;;
68256;SDS011;55069;51.568;4.656;2023-11-19T01:36:32;35.97;;;4.53;;
68256;SDS011;55069;51.568;4.656;2023-11-19T01:38:57;36.00;;;4.17;;
68256;SDS011;55069;51.568;4.656;2023-11-19T01:41:23;37.90;;;4.45;;
68256;SDS011;55069;51.568;4.656;2023-11-19T01:43:50;33.00;;;4.83;;
68256;SDS011;55069;51.568;4.656;2023-11-19T01:46:15;43.63;;;4.90;;
68256;SDS011;55069;51.568;4.656;2023-11-19T01:48:45;40.03;;;5.43;;
68256;SDS011;55069;51.568;4.656;2023-11-19T01:51:15;48.63;;;5.17;;
68256;SDS011;55069;51.568;4.656;2023-11-19T01:53:41;36.33;;;4.03;;
68256;SDS011;55069;51.568;4.656;2023-11-19T01:56:08;43.88;;;5.63;;
68256;SDS011;55069;51.568;4.656;2023-11-19T01:58:36;41.35;;;5.78;;
68256;SDS011;55069;51.568;4.656;2023-11-19T02:01:01;46.60;;;5.43;;
68256;SDS011;55069;51.568;4.656;2023-11-19T02:03:30;44.73;;;5.13;;
68256;SDS011;55069;51.568;4.656;2023-11-19T02:05:58;44.40;;;5.65;;
68256;SDS011;55069;51.568;4.656;2023-11-19T02:08:24;34.28;;;4.10;;
68256;SDS011;55069;51.568;4.656;2023-11-19T02:10:51;34.22;;;5.22;;
68256;SDS011;55069;51.568;4.656;2023-11-19T02:13:20;46.05;;;5.05;;
68256;SDS011;55069;51.568;4.656;2023-11-19T02:15:46;39.03;;;4.27;;
68256;SDS011;55069;51.568;4.656;2023-11-19T02:20:59;47.10;;;5.65;;
68256;SDS011;55069;51.568;4.656;2023-11-19T02:23:28;41.28;;;4.82;;
68256;SDS011;55069;51.568;4.656;2023-11-19T02:26:00;38.30;;;4.53;;
68256;SDS011;55069;51.568;4.656;2023-11-19T02:28:28;35.10;;;4.63;;
68256;SDS011;55069;51.568;4.656;2023-11-19T02:30:54;36.88;;;4.85;;
68256;SDS011;55069;51.568;4.656;2023-11-19T02:33:19;31.53;;;4.00;;
68256;SDS011;55069;51.568;4.656;2023-11-19T02:35:45;47.20;;;4.87;;
68256;SDS011;55069;51.568;4.656;2023-11-19T02:38:11;34.45;;;4.43;;
68256;SDS011;55069;51.568;4.656;2023-11-19T02:40:39;33.22;;;4.43;;
68256;SDS011;55069;51.568;4.656;2023-11-19T02:43:04;44.97;;;4.10;;
68256;SDS011;55069;51.568;4.656;2023-11-19T02:45:30;36.10;;;4.70;;
68256;SDS011;55069;51.568;4.656;2023-11-19T02:47:56;43.70;;;5.88;;
68256;SDS011;55069;51.568;4.656;2023-11-19T02:50:21;34.33;;;5.27;;
68256;SDS011;55069;51.568;4.656;2023-11-19T02:52:51;43.40;;;4.55;;
68256;SDS011;55069;51.568;4.656;2023-11-19T02:55:18;41.25;;;4.53;;
68256;SDS011;55069;51.568;4.656;2023-11-19T02:57:44;41.80;;;5.30;;
68256;SDS011;55069;51.568;4.656;2023-11-19T03:00:20;37.33;;;5.23;;
68256;SDS011;55069;51.568;4.656;2023-11-19T03:02:50;51.63;;;5.50;;
68256;SDS011;55069;51.568;4.656;2023-11-19T03:05:39;47.50;;;5.32;;
68256;SDS011;55069;51.568;4.656;2023-11-19T03:08:06;46.80;;;6.15;;
68256;SDS011;55069;51.568;4.656;2023-11-19T03:10:32;44.10;;;5.63;;
68256;SDS011;55069;51.568;4.656;2023-11-19T03:12:58;34.93;;;5.47;;
68256;SDS011;55069;51.568;4.656;2023-11-19T03:15:24;44.95;;;4.82;;
68256;SDS011;55069;51.568;4.656;2023-11-19T03:17:50;52.83;;;6.20;;
68256;SDS011;55069;51.568;4.656;2023-11-19T03:20:15;51.47;;;5.17;;
68256;SDS011;55069;51.568;4.656;2023-11-19T03:22:42;51.67;;;6.13;;
68256;SDS011;55069;51.568;4.656;2023-11-19T03:25:08;42.35;;;4.65;;
68256;SDS011;55069;51.568;4.656;2023-11-19T03:27:37;49.35;;;5.90;;
68256;SDS011;55069;51.568;4.656;2023-11-19T03:30:09;48.77;;;5.37;;
68256;SDS011;55069;51.568;4.656;2023-11-19T03:32:35;43.88;;;5.60;;
68256;SDS011;55069;51.568;4.656;2023-11-19T03:35:01;49.17;;;6.03;;
68256;SDS011;55069;51.568;4.656;2023-11-19T03:37:29;45.28;;;4.97;;
68256;SDS011;55069;51.568;4.656;2023-11-19T03:39:56;43.07;;;5.23;;
68256;SDS011;55069;51.568;4.656;2023-11-19T03:42:25;47.42;;;5.25;;
68256;SDS011;55069;51.568;4.656;2023-11-19T03:44:52;38.25;;;6.60;;
68256;SDS011;55069;51.568;4.656;2023-11-19T03:47:18;48.88;;;5.70;;
68256;SDS011;55069;51.568;4.656;2023-11-19T03:49:50;43.97;;;5.57;;
68256;SDS011;55069;51.568;4.656;2023-11-19T03:52:16;54.92;;;5.53;;
68256;SDS011;55069;51.568;4.656;2023-11-19T03:54:43;63.93;;;6.33;;
68256;SDS011;55069;51.568;4.656;2023-11-19T03:57:09;45.85;;;5.32;;
68256;SDS011;55069;51.568;4.656;2023-11-19T03:59:36;41.60;;;5.20;;
68256;SDS011;55069;51.568;4.656;2023-11-19T04:02:02;44.03;;;4.80;;
68256;SDS011;55069;51.568;4.656;2023-11-19T04:04:28;50.00;;;6.90;;
68256;SDS011;55069;51.568;4.656;2023-11-19T04:06:54;52.25;;;5.82;;
68256;SDS011;55069;51.568;4.656;2023-11-19T04:09:20;48.75;;;6.63;;
68256;SDS011;55069;51.568;4.656;2023-11-19T04:11:46;50.93;;;5.33;;
68256;SDS011;55069;51.568;4.656;2023-11-19T04:14:14;54.60;;;5.88;;
68256;SDS011;55069;51.568;4.656;2023-11-19T04:16:40;43.28;;;4.95;;
68256;SDS011;55069;51.568;4.656;2023-11-19T04:19:06;56.25;;;6.88;;
68256;SDS011;55069;51.568;4.656;2023-11-19T04:21:32;51.00;;;4.80;;
68256;SDS011;55069;51.568;4.656;2023-11-19T04:23:58;45.67;;;5.80;;
68256;SDS011;55069;51.568;4.656;2023-11-19T04:26:24;43.83;;;5.93;;
68256;SDS011;55069;51.568;4.656;2023-11-19T04:28:49;52.70;;;5.13;;
68256;SDS011;55069;51.568;4.656;2023-11-19T04:31:16;51.03;;;6.40;;
68256;SDS011;55069;51.568;4.656;2023-11-19T04:33:42;43.20;;;5.72;;
68256;SDS011;55069;51.568;4.656;2023-11-19T04:36:09;55.43;;;5.43;;
68256;SDS011;55069;51.568;4.656;2023-11-19T04:38:39;46.10;;;5.43;;
68256;SDS011;55069;51.568;4.656;2023-11-19T04:41:05;46.08;;;5.18;;
68256;SDS011;55069;51.568;4.656;2023-11-19T04:43:32;43.80;;;5.70;;
68256;SDS011;55069;51.568;4.656;2023-11-19T04:45:57;52.73;;;6.27;;
68256;SDS011;55069;51.568;4.656;2023-11-19T04:48:23;53.33;;;6.10;;
68256;SDS011;55069;51.568;4.656;2023-11-19T04:50:49;46.22;;;5.22;;
68256;SDS011;55069;51.568;4.656;2023-11-19T04:53:16;35.67;;;4.20;;
68256;SDS011;55069;51.568;4.656;2023-11-19T04:55:42;45.70;;;4.80;;
68256;SDS011;55069;51.568;4.656;2023-11-19T04:58:07;52.40;;;5.68;;
68256;SDS011;55069;51.568;4.656;2023-11-19T05:00:33;39.30;;;5.15;;
68256;SDS011;55069;51.568;4.656;2023-11-19T05:02:59;58.30;;;6.30;;
68256;SDS011;55069;51.568;4.656;2023-11-19T05:05:24;45.43;;;4.70;;
68256;SDS011;55069;51.568;4.656;2023-11-19T05:07:49;47.00;;;4.97;;
68256;SDS011;55069;51.568;4.656;2023-11-19T05:10:15;45.37;;;5.00;;
68256;SDS011;55069;51.568;4.656;2023-11-19T05:12:41;48.07;;;5.40;;
68256;SDS011;55069;51.568;4.656;2023-11-19T05:15:06;42.75;;;5.63;;
68256;SDS011;55069;51.568;4.656;2023-11-19T05:17:33;55.67;;;5.97;;
68256;SDS011;55069;51.568;4.656;2023-11-19T05:19:58;37.58;;;4.78;;
68256;SDS011;55069;51.568;4.656;2023-11-19T05:22:24;50.40;;;6.37;;
68256;SDS011;55069;51.568;4.656;2023-11-19T05:24:51;48.72;;;5.55;;
68256;SDS011;55069;51.568;4.656;2023-11-19T05:27:16;46.77;;;6.33;;
68256;SDS011;55069;51.568;4.656;2023-11-19T05:29:42;49.75;;;4.75;;
68256;SDS011;55069;51.568;4.656;2023-11-19T05:32:08;47.33;;;6.67;;
68256;SDS011;55069;51.568;4.656;2023-11-19T05:34:34;52.20;;;5.18;;
68256;SDS011;55069;51.568;4.656;2023-11-19T05:37:01;49.05;;;5.20;;
68256;SDS011;55069;51.568;4.656;2023-11-19T05:39:27;48.17;;;5.07;;
68256;SDS011;55069;51.568;4.656;2023-11-19T05:41:53;45.83;;;5.78;;
68256;SDS011;55069;51.568;4.656;2023-11-19T05:44:18;50.20;;;6.33;;
68256;SDS011;55069;51.568;4.656;2023-11-19T05:46:44;47.65;;;6.10;;
68256;SDS011;55069;51.568;4.656;2023-11-19T05:49:10;51.80;;;5.37;;
68256;SDS011;55069;51.568;4.656;2023-11-19T05:51:37;54.53;;;5.93;;
68256;SDS011;55069;51.568;4.656;2023-11-19T05:54:09;39.38;;;5.05;;
68256;SDS011;55069;51.568;4.656;2023-11-19T05:56:35;41.60;;;4.63;;
68256;SDS011;55069;51.568;4.656;2023-11-19T05:59:01;46.87;;;5.77;;
68256;SDS011;55069;51.568;4.656;2023-11-19T06:01:31;50.13;;;5.25;;
68256;SDS011;55069;51.568;4.656;2023-11-19T06:03:57;54.08;;;6.35;;
68256;SDS011;55069;51.568;4.656;2023-11-19T06:06:22;73.73;;;8.00;;
68256;SDS011;55069;51.568;4.656;2023-11-19T06:08:48;41.60;;;5.17;;
68256;SDS011;55069;51.568;4.656;2023-11-19T06:11:14;50.67;;;4.97;;
68256;SDS011;55069;51.568;4.656;2023-11-19T06:13:43;38.60;;;5.57;;
68256;SDS011;55069;51.568;4.656;2023-11-19T06:16:09;46.47;;;5.25;;
68256;SDS011;55069;51.568;4.656;2023-11-19T06:18:38;44.63;;;5.93;;
68256;SDS011;55069;51.568;4.656;2023-11-19T06:21:04;45.57;;;5.83;;
68256;SDS011;55069;51.568;4.656;2023-11-19T06:23:29;57.47;;;5.45;;
68256;SDS011;55069;51.568;4.656;2023-11-19T06:25:55;44.00;;;5.97;;
68256;SDS011;55069;51.568;4.656;2023-11-19T06:28:20;44.30;;;5.40;;
68256;SDS011;55069;51.568;4.656;2023-11-19T06:30:46;44.03;;;5.43;;
68256;SDS011;55069;51.568;4.656;2023-11-19T06:33:14;44.78;;;4.93;;
68256;SDS011;55069;51.568;4.656;2023-11-19T06:35:40;52.07;;;5.70;;
68256;SDS011;55069;51.568;4.656;2023-11-19T06:38:05;45.20;;;5.10;;
68256;SDS011;55069;51.568;4.656;2023-11-19T06:40:34;44.23;;;4.83;;
68256;SDS011;55069;51.568;4.656;2023-11-19T06:43:00;54.72;;;5.90;;
68256;SDS011;55069;51.568;4.656;2023-11-19T06:45:27;50.80;;;5.20;;
68256;SDS011;55069;51.568;4.656;2023-11-19T06:47:53;43.92;;;5.15;;
68256;SDS011;55069;51.568;4.656;2023-11-19T06:50:18;38.83;;;5.70;;
68256;SDS011;55069;51.568;4.656;2023-11-19T06:52:44;41.97;;;5.57;;
68256;SDS011;55069;51.568;4.656;2023-11-19T06:55:10;50.10;;;5.03;;
68256;SDS011;55069;51.568;4.656;2023-11-19T06:57:36;50.75;;;5.47;;
68256;SDS011;55069;51.568;4.656;2023-11-19T07:00:02;60.30;;;6.13;;
68256;SDS011;55069;51.568;4.656;2023-11-19T07:02:30;54.53;;;5.68;;
68256;SDS011;55069;51.568;4.656;2023-11-19T07:04:56;47.45;;;5.10;;
68256;SDS011;55069;51.568;4.656;2023-11-19T07:07:22;41.83;;;5.50;;
68256;SDS011;55069;51.568;4.656;2023-11-19T07:09:47;39.53;;;4.73;;
68256;SDS011;55069;51.568;4.656;2023-11-19T07:12:13;47.20;;;4.55;;
68256;SDS011;55069;51.568;4.656;2023-11-19T07:14:39;51.33;;;5.93;;
68256;SDS011;55069;51.568;4.656;2023-11-19T07:17:05;42.85;;;5.35;;
68256;SDS011;55069;51.568;4.656;2023-11-19T07:19:31;42.85;;;5.53;;
68256;SDS011;55069;51.568;4.656;2023-11-19T07:21:56;37.67;;;4.83;;
68256;SDS011;55069;51.568;4.656;2023-11-19T07:24:22;34.90;;;4.23;;
68256;SDS011;55069;51.568;4.656;2023-11-19T07:26:48;45.38;;;5.13;;
68256;SDS011;55069;51.568;4.656;2023-11-19T07:29:14;38.37;;;5.30;;
68256;SDS011;55069;51.568;4.656;2023-11-19T07:31:43;50.50;;;6.35;;
68256;SDS011;55069;51.568;4.656;2023-11-19T07:34:11;53.30;;;5.20;;
68256;SDS011;55069;51.568;4.656;2023-11-19T07:36:37;44.95;;;5.57;;
68256;SDS011;55069;51.568;4.656;2023-11-19T07:39:03;47.27;;;5.53;;
68256;SDS011;55069;51.568;4.656;2023-11-19T07:41:30;45.53;;;5.80;;
68256;SDS011;55069;51.568;4.656;2023-11-19T07:43:56;40.60;;;4.25;;
68256;SDS011;55069;51.568;4.656;2023-11-19T07:46:21;35.73;;;4.43;;
68256;SDS011;55069;51.568;4.656;2023-11-19T07:48:47;48.43;;;5.07;;
68256;SDS011;55069;51.568;4.656;2023-11-19T07:51:13;42.17;;;4.75;;
68256;SDS011;55069;51.568;4.656;2023-11-19T07:53:39;45.00;;;4.50;;
68256;SDS011;55069;51.568;4.656;2023-11-19T07:56:06;47.97;;;6.00;;
68256;SDS011;55069;51.568;4.656;2023-11-19T07:58:35;41.97;;;4.82;;
68256;SDS011;55069;51.568;4.656;2023-11-19T08:01:01;42.55;;;5.38;;
68256;SDS011;55069;51.568;4.656;2023-11-19T08:03:27;48.20;;;5.50;;
68256;SDS011;55069;51.568;4.656;2023-11-19T08:05:55;41.30;;;5.47;;
68256;SDS011;55069;51.568;4.656;2023-11-19T08:08:22;43.27;;;4.60;;
68256;SDS011;55069;51.568;4.656;2023-11-19T08:10:47;44.55;;;5.28;;
68256;SDS011;55069;51.568;4.656;2023-11-19T08:13:13;46.50;;;5.67;;
68256;SDS011;55069;51.568;4.656;2023-11-19T08:15:38;54.60;;;5.10;;
68256;SDS011;55069;51.568;4.656;2023-11-19T08:18:05;44.60;;;5.28;;
68256;SDS011;55069;51.568;4.656;2023-11-19T08:20:32;37.10;;;4.50;;
68256;SDS011;55069;51.568;4.656;2023-11-19T08:22:58;40.57;;;5.03;;
68256;SDS011;55069;51.568;4.656;2023-11-19T08:25:23;50.72;;;4.97;;
68256;SDS011;55069;51.568;4.656;2023-11-19T08:27:49;40.67;;;5.30;;
68256;SDS011;55069;51.568;4.656;2023-11-19T08:30:14;63.00;;;6.03;;
68256;SDS011;55069;51.568;4.656;2023-11-19T08:32:40;41.53;;;5.25;;
68256;SDS011;55069;51.568;4.656;2023-11-19T08:35:05;42.22;;;5.60;;
68256;SDS011;55069;51.568;4.656;2023-11-19T08:37:31;44.72;;;6.38;;
68256;SDS011;55069;51.568;4.656;2023-11-19T08:39:57;41.40;;;5.23;;
68256;SDS011;55069;51.568;4.656;2023-11-19T08:42:22;45.40;;;6.20;;
68256;SDS011;55069;51.568;4.656;2023-11-19T08:44:48;42.38;;;4.97;;
68256;SDS011;55069;51.568;4.656;2023-11-19T08:47:15;41.13;;;5.43;;
68256;SDS011;55069;51.568;4.656;2023-11-19T08:49:43;39.60;;;5.25;;
68256;SDS011;55069;51.568;4.656;2023-11-19T08:52:09;39.03;;;4.78;;
68256;SDS011;55069;51.568;4.656;2023-11-19T08:54:35;42.20;;;5.43;;
68256;SDS011;55069;51.568;4.656;2023-11-19T08:57:01;39.30;;;5.70;;
68256;SDS011;55069;51.568;4.656;2023-11-19T08:59:28;45.72;;;6.55;;
68256;SDS011;55069;51.568;4.656;2023-11-19T09:01:54;37.35;;;5.85;;
68256;SDS011;55069;51.568;4.656;2023-11-19T09:04:19;39.87;;;4.63;;
68256;SDS011;55069;51.568;4.656;2023-11-19T09:06:47;43.70;;;4.88;;
68256;SDS011;55069;51.568;4.656;2023-11-19T09:09:12;49.63;;;5.53;;
68256;SDS011;55069;51.568;4.656;2023-11-19T09:11:39;38.13;;;6.50;;
68256;SDS011;55069;51.568;4.656;2023-11-19T09:14:04;45.65;;;5.65;;
68256;SDS011;55069;51.568;4.656;2023-11-19T09:16:30;38.13;;;5.57;;
68256;SDS011;55069;51.568;4.656;2023-11-19T09:18:55;45.37;;;5.30;;
68256;SDS011;55069;51.568;4.656;2023-11-19T09:21:21;51.70;;;6.53;;
68256;SDS011;55069;51.568;4.656;2023-11-19T09:23:47;39.35;;;5.43;;
68256;SDS011;55069;51.568;4.656;2023-11-19T09:26:14;39.33;;;4.85;;
68256;SDS011;55069;51.568;4.656;2023-11-19T09:28:39;38.13;;;5.20;;
68256;SDS011;55069;51.568;4.656;2023-11-19T09:31:14;41.85;;;5.35;;
68256;SDS011;55069;51.568;4.656;2023-11-19T09:33:40;44.28;;;5.88;;
68256;SDS011;55069;51.568;4.656;2023-11-19T09:36:06;39.40;;;5.68;;
68256;SDS011;55069;51.568;4.656;2023-11-19T09:38:32;40.42;;;5.32;;
68256;SDS011;55069;51.568;4.656;2023-11-19T09:40:58;35.53;;;4.60;;
68256;SDS011;55069;51.568;4.656;2023-11-19T09:43:24;43.03;;;4.88;;
68256;SDS011;55069;51.568;4.656;2023-11-19T09:45:53;40.53;;;5.10;;
68256;SDS011;55069;51.568;4.656;2023-11-19T09:48:21;46.20;;;5.18;;
68256;SDS011;55069;51.568;4.656;2023-11-19T09:50:48;39.73;;;5.40;;
68256;SDS011;55069;51.568;4.656;2023-11-19T09:53:14;42.88;;;4.93;;
68256;SDS011;55069;51.568;4.656;2023-11-19T09:55:40;39.65;;;5.47;;
68256;SDS011;55069;51.568;4.656;2023-11-19T09:58:07;40.47;;;4.78;;
68256;SDS011;55069;51.568;4.656;2023-11-19T10:00:33;41.47;;;5.25;;
68256;SDS011;55069;51.568;4.656;2023-11-19T10:02:59;38.90;;;5.77;;
68256;SDS011;55069;51.568;4.656;2023-11-19T10:05:25;45.05;;;4.88;;
68256;SDS011;55069;51.568;4.656;2023-11-19T10:07:51;41.83;;;5.28;;
68256;SDS011;55069;51.568;4.656;2023-11-19T10:10:17;45.10;;;5.60;;
68256;SDS011;55069;51.568;4.656;2023-11-19T10:12:47;39.85;;;5.10;;
68256;SDS011;55069;51.568;4.656;2023-11-19T10:15:17;41.93;;;4.73;;
68256;SDS011;55069;51.568;4.656;2023-11-19T10:17:47;45.92;;;6.00;;
68256;SDS011;55069;51.568;4.656;2023-11-19T10:20:13;43.97;;;6.13;;
68256;SDS011;55069;51.568;4.656;2023-11-19T10:22:38;31.70;;;5.20;;
68256;SDS011;55069;51.568;4.656;2023-11-19T10:27:52;41.80;;;6.20;;
68256;SDS011;55069;51.568;4.656;2023-11-19T10:30:22;31.85;;;4.15;;
68256;SDS011;55069;51.568;4.656;2023-11-19T10:33:10;37.87;;;4.60;;
68256;SDS011;55069;51.568;4.656;2023-11-19T10:36:03;34.63;;;4.60;;
68256;SDS011;55069;51.568;4.656;2023-11-19T10:38:28;39.05;;;4.68;;
68256;SDS011;55069;51.568;4.656;2023-11-19T10:40:54;38.60;;;5.40;;
68256;SDS011;55069;51.568;4.656;2023-11-19T10:43:20;33.17;;;3.90;;
68256;SDS011;55069;51.568;4.656;2023-11-19T10:45:50;35.45;;;5.20;;
68256;SDS011;55069;51.568;4.656;2023-11-19T10:48:15;37.00;;;4.73;;
68256;SDS011;55069;51.568;4.656;2023-11-19T10:50:42;31.55;;;4.70;;
68256;SDS011;55069;51.568;4.656;2023-11-19T10:53:09;27.08;;;4.10;;
68256;SDS011;55069;51.568;4.656;2023-11-19T10:55:39;25.90;;;4.10;;
68256;SDS011;55069;51.568;4.656;2023-11-19T10:58:05;26.17;;;3.45;;
68256;SDS011;55069;51.568;4.656;2023-11-19T11:00:39;27.65;;;3.83;;
68256;SDS011;55069;51.568;4.656;2023-11-19T11:03:19;37.80;;;3.93;;
68256;SDS011;55069;51.568;4.656;2023-11-19T11:05:48;29.73;;;3.88;;
68256;SDS011;55069;51.568;4.656;2023-11-19T11:08:15;42.17;;;5.00;;
68256;SDS011;55069;51.568;4.656;2023-11-19T11:10:44;31.13;;;3.72;;
68256;SDS011;55069;51.568;4.656;2023-11-19T11:13:10;38.47;;;4.88;;
68256;SDS011;55069;51.568;4.656;2023-11-19T11:15:38;37.67;;;4.73;;
68256;SDS011;55069;51.568;4.656;2023-11-19T11:18:06;35.05;;;4.45;;
68256;SDS011;55069;51.568;4.656;2023-11-19T11:20:34;34.60;;;5.07;;
68256;SDS011;55069;51.568;4.656;2023-11-19T11:25:35;30.00;;;4.37;;
68256;SDS011;55069;51.568;4.656;2023-11-19T11:28:05;29.23;;;4.70;;
68256;SDS011;55069;51.568;4.656;2023-11-19T11:37:03;35.40;;;4.28;;
68256;SDS011;55069;51.568;4.656;2023-11-19T11:39:40;28.60;;;3.95;;
68256;SDS011;55069;51.568;4.656;2023-11-19T11:50:11;28.37;;;4.57;;
68256;SDS011;55069;51.568;4.656;2023-11-19T11:55:27;29.58;;;4.32;;
68256;SDS011;55069;51.568;4.656;2023-11-19T11:58:01;34.42;;;4.63;;
68256;SDS011;55069;51.568;4.656;2023-11-19T12:03:03;25.83;;;4.23;;
68256;SDS011;55069;51.568;4.656;2023-11-19T12:05:32;47.05;;;5.03;;
68256;SDS011;55069;51.568;4.656;2023-11-19T12:08:05;35.33;;;5.45;;
68256;SDS011;55069;51.568;4.656;2023-11-19T12:10:54;31.27;;;5.10;;
68256;SDS011;55069;51.568;4.656;2023-11-19T12:13:23;31.73;;;4.45;;
68256;SDS011;55069;51.568;4.656;2023-11-19T12:18:21;33.55;;;4.75;;
68256;SDS011;55069;51.568;4.656;2023-11-19T12:20:57;33.80;;;4.43;;
68256;SDS011;55069;51.568;4.656;2023-11-19T12:23:30;40.88;;;4.90;;
68256;SDS011;55069;51.568;4.656;2023-11-19T12:25:56;36.70;;;4.47;;
68256;SDS011;55069;51.568;4.656;2023-11-19T12:28:23;37.50;;;4.10;;
68256;SDS011;55069;51.568;4.656;2023-11-19T12:30:51;41.00;;;4.20;;
68256;SDS011;55069;51.568;4.656;2023-11-19T12:33:18;26.60;;;3.78;;
68256;SDS011;55069;51.568;4.656;2023-11-19T12:35:45;27.58;;;3.70;;
68256;SDS011;55069;51.568;4.656;2023-11-19T12:38:19;28.20;;;3.80;;
68256;SDS011;55069;51.568;4.656;2023-11-19T12:40:46;37.47;;;4.17;;
68256;SDS011;55069;51.568;4.656;2023-11-19T12:43:13;28.17;;;4.45;;
68256;SDS011;55069;51.568;4.656;2023-11-19T12:45:47;23.08;;;3.70;;
68256;SDS011;55069;51.568;4.656;2023-11-19T12:48:13;35.87;;;5.20;;
68256;SDS011;55069;51.568;4.656;2023-11-19T12:50:51;29.97;;;4.37;;
68256;SDS011;55069;51.568;4.656;2023-11-19T12:53:23;30.70;;;5.43;;
68256;SDS011;55069;51.568;4.656;2023-11-19T12:55:51;34.97;;;5.18;;
68256;SDS011;55069;51.568;4.656;2023-11-19T12:58:33;34.50;;;4.72;;
68256;SDS011;55069;51.568;4.656;2023-11-19T13:01:04;34.08;;;4.70;;
68256;SDS011;55069;51.568;4.656;2023-11-19T13:03:33;32.73;;;5.00;;
68256;SDS011;55069;51.568;4.656;2023-11-19T13:06:06;27.10;;;3.25;;
68256;SDS011;55069;51.568;4.656;2023-11-19T13:08:43;26.05;;;3.55;;
68256;SDS011;55069;51.568;4.656;2023-11-19T13:11:31;24.13;;;3.00;;
68256;SDS011;55069;51.568;4.656;2023-11-19T13:16:25;23.03;;;3.27;;
68256;SDS011;55069;51.568;4.656;2023-11-19T13:18:51;29.67;;;3.80;;
68256;SDS011;55069;51.568;4.656;2023-11-19T13:21:17;29.50;;;3.47;;
68256;SDS011;55069;51.568;4.656;2023-11-19T13:23:43;29.30;;;3.08;;
68256;SDS011;55069;51.568;4.656;2023-11-19T13:26:08;34.37;;;4.13;;
68256;SDS011;55069;51.568;4.656;2023-11-19T13:28:34;36.45;;;4.20;;
68256;SDS011;55069;51.568;4.656;2023-11-19T13:31:00;24.00;;;3.83;;
68256;SDS011;55069;51.568;4.656;2023-11-19T13:33:25;27.40;;;4.10;;
68256;SDS011;55069;51.568;4.656;2023-11-19T13:35:51;31.02;;;4.07;;
68256;SDS011;55069;51.568;4.656;2023-11-19T13:38:17;25.50;;;3.60;;
68256;SDS011;55069;51.568;4.656;2023-11-19T13:40:42;30.45;;;4.88;;
68256;SDS011;55069;51.568;4.656;2023-11-19T13:43:08;29.10;;;4.10;;
68256;SDS011;55069;51.568;4.656;2023-11-19T13:45:33;27.30;;;3.83;;
68256;SDS011;55069;51.568;4.656;2023-11-19T13:47:59;30.77;;;4.30;;
68256;SDS011;55069;51.568;4.656;2023-11-19T13:50:25;25.50;;;3.20;;
68256;SDS011;55069;51.568;4.656;2023-11-19T13:52:51;34.72;;;4.88;;
68256;SDS011;55069;51.568;4.656;2023-11-19T13:55:16;27.10;;;3.25;;
68256;SDS011;55069;51.568;4.656;2023-11-19T13:57:43;30.48;;;4.13;;
68256;SDS011;55069;51.568;4.656;2023-11-19T14:00:09;28.37;;;3.63;;
68256;SDS011;55069;51.568;4.656;2023-11-19T14:02:39;27.10;;;3.67;;
68256;SDS011;55069;51.568;4.656;2023-11-19T14:05:06;33.95;;;4.30;;
68256;SDS011;55069;51.568;4.656;2023-11-19T14:07:32;26.13;;;3.47;;
68256;SDS011;55069;51.568;4.656;2023-11-19T14:09:58;32.00;;;3.60;;
68256;SDS011;55069;51.568;4.656;2023-11-19T14:12:23;23.50;;;3.67;;
68256;SDS011;55069;51.568;4.656;2023-11-19T14:14:49;22.43;;;3.60;;
68256;SDS011;55069;51.568;4.656;2023-11-19T14:17:14;29.70;;;4.20;;
68256;SDS011;55069;51.568;4.656;2023-11-19T14:19:41;25.52;;;3.33;;
68256;SDS011;55069;51.568;4.656;2023-11-19T14:22:07;33.13;;;3.72;;
68256;SDS011;55069;51.568;4.656;2023-11-19T14:24:33;23.47;;;3.07;;
68256;SDS011;55069;51.568;4.656;2023-11-19T14:26:59;25.50;;;2.90;;
68256;SDS011;55069;51.568;4.656;2023-11-19T14:29:26;30.70;;;3.35;;
68256;SDS011;55069;51.568;4.656;2023-11-19T14:31:52;24.38;;;3.78;;
68256;SDS011;55069;51.568;4.656;2023-11-19T14:34:20;22.83;;;3.55;;
68256;SDS011;55069;51.568;4.656;2023-11-19T14:36:46;30.70;;;3.97;;
68256;SDS011;55069;51.568;4.656;2023-11-19T14:39:12;28.30;;;3.95;;
68256;SDS011;55069;51.568;4.656;2023-11-19T14:41:38;24.07;;;3.93;;
68256;SDS011;55069;51.568;4.656;2023-11-19T14:44:04;22.63;;;3.03;;
68256;SDS011;55069;51.568;4.656;2023-11-19T14:46:30;29.98;;;3.63;;
68256;SDS011;55069;51.568;4.656;2023-11-19T14:48:56;29.83;;;3.37;;
68256;SDS011;55069;51.568;4.656;2023-11-19T14:51:21;25.90;;;4.10;;
68256;SDS011;55069;51.568;4.656;2023-11-19T14:53:47;28.73;;;3.20;;
68256;SDS011;55069;51.568;4.656;2023-11-19T14:56:13;23.83;;;3.13;;
68256;SDS011;55069;51.568;4.656;2023-11-19T14:58:39;27.80;;;3.08;;
68256;SDS011;55069;51.568;4.656;2023-11-19T15:01:05;28.38;;;3.78;;
68256;SDS011;55069;51.568;4.656;2023-11-19T15:03:30;34.50;;;4.30;;
68256;SDS011;55069;51.568;4.656;2023-11-19T15:05:56;27.67;;;3.25;;